CDT,Max TemperatureF,Mean TemperatureF,Min TemperatureF,Max Dew PointF,MeanDew PointF,Min DewpointF,Max Humidity, Mean Humidity, Min Humidity, Max Sea Level PressureIn, Mean Sea Level PressureIn, Min Sea Level PressureIn, Max VisibilityMiles, Mean VisibilityMiles, Min VisibilityMiles, Max Wind SpeedMPH, Mean Wind SpeedMPH, Max Gust SpeedMPH,PrecipitationIn, CloudCover, Events, WindDirDegrees
2012-10-1,77,69,69,63,61,59,78,68,57,29.82,29.77,29.71,15,13,10,31,27,,0.00,3,,317
2012-10-2,80,78,77,64,62,61,65,57,51,29.90,29.86,29.81,15,15,15,16,13,,0.00,0,,313
2012-10-3,89,78,78,63,61,59,57,46,36,30.03,30.02,30.01,15,12,10,2,2,,0.00,0,,250
2012-10-4,84,78,77,73,67,64,70,65,61,30.18,30.13,30.09,15,15,15,12,10,,0.00,0,,143
2012-10-5,80,78,77,72,69,66,83,71,61,30.08,30.05,30.02,15,15,15,8,7,,0.00,1,,90
2012-10-6,82,78,77,72,70,70,78,74,70,30.02,29.99,29.96,15,15,15,9,8,,0.00,2,,73
2012-10-7,69,68,68,70,66,64,100,92,88,30.10,30.05,30.02,15,9,6,31,25,,0.00,6,,15
2012-10-8,68,67,66,63,63,63,88,85,83,30.16,30.11,30.08,15,15,15,24,21,,0.00,5,,23
2012-10-9,75,72,71,70,67,64,83,80,78,30.10,30.07,30.02,15,15,15,13,9,,0.00,3,,80
2012-10-10,80,79,78,75,74,73,84,82,79,30.12,30.08,30.03,15,14,13,18,12,,0.00,6,,123
2012-10-11,84,78,78,72,71,70,78,73,66,30.19,30.14,30.10,15,13,10,22,17,,0.00,1,,103
2012-10-12,82,79,78,72,71,70,74,73,70,30.19,30.15,30.12,15,13,10,15,14,,0.00,3,,130
2012-10-13,82,79,78,75,73,70,79,77,74,30.13,30.10,30.06,15,12,10,22,21,,0.00,2,,150
2012-10-14,82,79,78,73,72,72,83,76,70,30.10,30.03,30.00,15,13,10,23,15,,0.00,2,,207
2012-10-15,82,78,78,72,71,70,78,74,70,30.02,29.99,29.95,15,15,15,18,12,,0.00,4,,355
2012-10-16,78,76,75,68,67,64,74,71,69,29.94,29.90,29.83,15,15,15,12,8,,0.00,3,,123
2012-10-17,82,78,75,75,72,64,84,77,69,29.80,29.77,29.72,15,15,15,21,19,,0.00,3,,178
2012-10-18,80,80,80,75,74,73,84,82,79,29.85,29.81,29.76,15,12,10,25,19,,0.00,6,,58
2012-10-19,82,,82,52,52,52,35,35,35,29.95,29.95,29.95,15,15,15,8,8,,0.00,0,,180
2012-10-20,80,76,75,63,57,48,54,49,38,30.00,29.95,29.91,15,15,15,17,9,,0.00,0,,113
2012-10-21,80,78,77,72,70,68,78,72,65,30.02,29.98,29.94,15,15,15,22,20,,0.00,1,,160
2012-10-22,82,78,78,70,70,70,74,71,66,30.04,30.01,29.98,15,15,15,21,18,,0.00,1,,123
2012-10-23,84,78,77,70,68,66,70,66,58,30.00,29.97,29.96,15,15,15,17,11,,0.00,1,,118
2012-10-24,80,79,78,75,73,72,84,80,78,30.02,29.97,29.94,15,15,15,15,14,,0.00,7,,113
2012-10-25,82,80,80,73,72,72,79,74,70,29.94,29.93,29.91,10,10,10,15,14,,0.00,4,,145
2012-10-26,78,78,71,72,71,70,94,86,78,30.00,29.98,29.96,10,8,5,24,12,,0.00,6,,350
2012-10-27,64,60,60,55,54,54,82,75,68,30.11,30.07,30.04,15,12,10,25,22,29,0.00,3,,180
2012-10-28,64,64,64,46,46,46,52,52,52,30.16,30.14,30.12,15,15,15,21,18,28,0.00,0,,180
2012-10-29,68,62,62,45,44,43,48,46,43,30.23,30.19,30.14,20,18,15,21,19,,0.00,0,,25
2012-10-30,73,66,66,55,54,52,60,56,53,30.14,30.09,30.05,20,20,20,7,5,,0.00,0,,150
2012-10-31,77,75,75,63,63,63,65,63,61,30.08,30.05,30.01,15,15,15,9,7,,0.00,2,,255